createdAt,value
2023-04-23T00:02:08.187Z,7.68
2023-04-23T00:04:37.724Z,8.07
2023-04-23T00:07:05.814Z,8.15
2023-04-23T00:09:32.866Z,8.07
2023-04-23T00:12:01.933Z,8.48
2023-04-23T00:14:28.951Z,7.60
2023-04-23T00:16:55.975Z,8.55
2023-04-23T00:19:22.637Z,8.73
2023-04-23T00:21:49.445Z,8.13
2023-04-23T00:24:16.118Z,7.90
2023-04-23T00:26:42.796Z,8.30
2023-04-23T00:29:09.427Z,7.88
2023-04-23T00:31:36.224Z,7.75
2023-04-23T00:34:03.263Z,8.75
2023-04-23T00:36:30.137Z,8.10
2023-04-23T00:38:56.917Z,8.75
2023-04-23T00:41:23.827Z,8.35
2023-04-23T00:43:52.479Z,8.40
2023-04-23T00:46:19.282Z,8.15
2023-04-23T00:48:47.342Z,8.18
2023-04-23T00:51:16.375Z,8.80
2023-04-23T00:53:42.991Z,9.15
2023-04-23T00:56:10.353Z,8.45
2023-04-23T00:58:37.197Z,7.85
2023-04-23T01:01:04.814Z,8.35
2023-04-23T01:03:32.684Z,8.05
2023-04-23T01:05:59.698Z,8.10
2023-04-23T01:08:26.638Z,8.00
2023-04-23T01:10:53.751Z,8.52
2023-04-23T01:13:22.276Z,8.20
2023-04-23T01:15:49.593Z,8.38
2023-04-23T01:18:16.269Z,8.43
2023-04-23T01:20:43.830Z,8.32
2023-04-23T01:23:11.046Z,8.48
2023-04-23T01:25:37.935Z,8.07
2023-04-23T01:28:06.685Z,8.05
2023-04-23T01:30:33.801Z,7.97
2023-04-23T01:33:01.791Z,9.00
2023-04-23T01:35:29.989Z,7.82
2023-04-23T01:37:58.808Z,8.57
2023-04-23T01:40:25.582Z,7.80
2023-04-23T01:42:52.653Z,8.23
2023-04-23T01:45:19.753Z,7.88
2023-04-23T01:47:46.979Z,8.07
2023-04-23T01:50:14.010Z,7.75
2023-04-23T01:52:42.070Z,8.20
2023-04-23T01:55:09.448Z,8.20
2023-04-23T01:57:36.854Z,7.72
2023-04-23T02:00:11.548Z,8.18
2023-04-23T02:02:40.286Z,7.97
2023-04-23T02:05:16.986Z,7.55
2023-04-23T02:07:44.569Z,8.00
2023-04-23T02:10:11.714Z,8.25
2023-04-23T02:12:38.779Z,7.85
2023-04-23T02:15:08.354Z,8.50
2023-04-23T02:17:35.446Z,8.00
2023-04-23T02:20:06.959Z,8.13
2023-04-23T02:22:33.678Z,7.95
2023-04-23T02:25:00.357Z,8.68
2023-04-23T02:27:27.396Z,8.25
2023-04-23T02:29:54.528Z,8.93
2023-04-23T02:32:21.193Z,8.38
2023-04-23T02:34:47.878Z,8.85
2023-04-23T02:37:14.561Z,7.75
2023-04-23T02:39:41.152Z,8.40
2023-04-23T02:42:07.876Z,8.38
2023-04-23T02:44:34.646Z,8.32
2023-04-23T02:47:01.637Z,8.02
2023-04-23T02:49:28.316Z,9.10
2023-04-23T02:51:55.156Z,8.48
2023-04-23T02:54:22.025Z,8.38
2023-04-23T02:56:48.675Z,8.55
2023-04-23T02:59:15.440Z,8.20
2023-04-23T03:01:42.065Z,8.70
2023-04-23T03:04:09.198Z,7.90
2023-04-23T03:06:37.014Z,8.50
2023-04-23T03:09:04.853Z,9.00
2023-04-23T03:11:31.676Z,8.52
2023-04-23T03:13:58.452Z,8.15
2023-04-23T03:16:28.635Z,7.93
2023-04-23T03:18:55.797Z,8.50
2023-04-23T03:21:22.621Z,8.55
2023-04-23T03:23:49.264Z,8.35
2023-04-23T03:26:15.866Z,7.75
2023-04-23T03:28:42.601Z,8.90
2023-04-23T03:31:09.287Z,8.90
2023-04-23T03:33:35.978Z,10.23
2023-04-23T03:36:02.833Z,9.55
2023-04-23T03:38:29.567Z,9.73
2023-04-23T03:40:56.274Z,9.93
2023-04-23T03:43:23.042Z,10.05
2023-04-23T03:45:49.684Z,9.98
2023-04-23T03:48:16.344Z,10.05
2023-04-23T03:50:43.060Z,10.55
2023-04-23T03:53:10.254Z,10.55
2023-04-23T03:55:36.884Z,10.13
2023-04-23T03:58:03.568Z,11.18
2023-04-23T04:00:30.503Z,11.80
2023-04-23T04:02:57.332Z,11.85
2023-04-23T04:05:24.253Z,10.82
2023-04-23T04:07:50.947Z,11.15
2023-04-23T04:10:17.685Z,11.80
2023-04-23T04:12:46.792Z,10.75
2023-04-23T04:15:14.182Z,10.50
2023-04-23T04:17:40.814Z,11.25
2023-04-23T04:20:08.518Z,10.98
2023-04-23T04:22:35.197Z,12.45
2023-04-23T04:25:01.801Z,11.43
2023-04-23T04:27:28.541Z,11.60
2023-04-23T04:29:55.162Z,11.68
2023-04-23T04:32:23.546Z,11.57
2023-04-23T04:34:50.752Z,11.07
2023-04-23T04:37:17.790Z,11.38
2023-04-23T04:39:44.529Z,10.63
2023-04-23T04:42:13.051Z,10.30
2023-04-23T04:44:40.116Z,12.38
2023-04-23T04:47:09.948Z,11.10
2023-04-23T04:49:37.155Z,11.27
2023-04-23T04:52:03.834Z,11.13
2023-04-23T04:54:30.428Z,11.68
2023-04-23T04:56:57.187Z,11.57
2023-04-23T04:59:23.822Z,11.30
2023-04-23T05:01:50.671Z,11.80
2023-04-23T05:04:17.406Z,10.63
2023-04-23T05:06:44.477Z,11.32
2023-04-23T05:09:11.738Z,10.90
2023-04-23T05:11:38.485Z,11.00
2023-04-23T05:14:05.311Z,10.73
2023-04-23T05:16:32.074Z,10.10
2023-04-23T05:18:58.898Z,10.18
2023-04-23T05:21:27.621Z,10.00
2023-04-23T05:23:55.129Z,10.45
2023-04-23T05:26:21.858Z,10.45
2023-04-23T05:28:48.459Z,10.68
2023-04-23T05:31:15.246Z,9.73
2023-04-23T05:33:49.988Z,9.38
2023-04-23T05:36:17.900Z,10.30
2023-04-23T05:38:44.567Z,10.05
2023-04-23T05:41:11.355Z,8.93
2023-04-23T05:43:38.121Z,9.77
2023-04-23T05:46:07.184Z,10.07
2023-04-23T05:48:34.407Z,8.73
2023-04-23T05:51:01.172Z,8.93
2023-04-23T05:53:28.447Z,8.52
2023-04-23T05:55:55.236Z,9.00
2023-04-23T05:58:22.228Z,9.57
2023-04-23T06:00:49.810Z,8.43
2023-04-23T06:03:16.824Z,9.60
2023-04-23T06:05:43.628Z,9.68
2023-04-23T06:08:10.247Z,8.63
2023-04-23T06:10:37.060Z,8.13
2023-04-23T06:13:03.792Z,8.82
2023-04-23T06:15:30.787Z,8.90
2023-04-23T06:17:57.791Z,8.25
2023-04-23T06:20:25.021Z,8.50
2023-04-23T06:22:51.643Z,9.00
2023-04-23T06:25:18.296Z,9.00
2023-04-23T06:27:44.896Z,9.48
2023-04-23T06:30:12.126Z,8.52
2023-04-23T06:32:38.780Z,8.57
2023-04-23T06:35:07.830Z,8.77
2023-04-23T06:37:35.079Z,9.32
2023-04-23T06:40:01.931Z,8.93
2023-04-23T06:42:28.640Z,9.35
2023-04-23T06:44:55.330Z,9.15
2023-04-23T06:47:21.976Z,9.18
2023-04-23T06:49:48.599Z,9.50
2023-04-23T06:52:15.274Z,8.93
2023-04-23T06:54:42.134Z,8.45
2023-04-23T06:57:09.330Z,8.05
2023-04-23T06:59:36.057Z,8.48
2023-04-23T07:02:02.676Z,7.97
2023-04-23T07:04:29.335Z,8.48
2023-04-23T07:06:56.129Z,8.10
2023-04-23T07:09:23.368Z,8.30
2023-04-23T07:11:50.978Z,8.13
2023-04-23T07:14:17.878Z,8.80
2023-04-23T07:16:44.791Z,8.05
2023-04-23T07:19:11.492Z,8.00
2023-04-23T07:21:38.107Z,8.25
2023-04-23T07:24:07.276Z,8.13
2023-04-23T07:26:35.300Z,8.02
2023-04-23T07:29:03.673Z,7.82
2023-04-23T07:31:30.409Z,7.80
2023-04-23T07:33:57.195Z,7.28
2023-04-23T07:36:23.934Z,7.35
2023-04-23T07:38:51.157Z,7.38
2023-04-23T07:41:18.312Z,7.20
2023-04-23T07:43:45.546Z,6.60
2023-04-23T07:46:12.572Z,6.60
2023-04-23T07:48:39.389Z,7.53
2023-04-23T07:51:06.799Z,6.90
2023-04-23T07:53:33.483Z,7.38
2023-04-23T07:56:00.974Z,6.53
2023-04-23T07:58:27.753Z,6.90
2023-04-23T08:00:54.497Z,7.60
2023-04-23T08:03:22.286Z,7.15
2023-04-23T08:05:49.267Z,7.30
2023-04-23T08:08:15.901Z,7.90
2023-04-23T08:10:42.660Z,8.25
2023-04-23T08:13:09.484Z,8.52
2023-04-23T08:15:36.295Z,8.95
2023-04-23T08:18:04.446Z,8.13
2023-04-23T08:20:32.306Z,8.80
2023-04-23T08:22:59.367Z,7.97
2023-04-23T08:25:26.077Z,9.00
2023-04-23T08:27:52.811Z,9.25
2023-04-23T08:30:19.458Z,9.23
2023-04-23T08:32:50.140Z,10.40
2023-04-23T08:35:17.012Z,9.73
2023-04-23T08:37:43.673Z,9.85
2023-04-23T08:40:10.685Z,9.85
2023-04-23T08:42:38.664Z,8.57
2023-04-23T08:45:06.160Z,8.85
2023-04-23T08:47:33.566Z,8.13
2023-04-23T08:50:00.812Z,8.30
2023-04-23T08:52:32.441Z,9.05
2023-04-23T08:55:01.452Z,9.10
2023-04-23T08:57:28.559Z,9.25
2023-04-23T08:59:57.135Z,8.65
2023-04-23T09:02:25.110Z,8.27
2023-04-23T09:04:56.214Z,11.48
2023-04-23T09:07:23.557Z,8.18
2023-04-23T09:09:50.226Z,8.30
2023-04-23T09:12:16.940Z,8.13
2023-04-23T09:14:44.338Z,8.32
2023-04-23T09:17:11.291Z,8.23
2023-04-23T09:19:39.947Z,9.30
2023-04-23T09:22:07.617Z,8.50
2023-04-23T09:24:35.213Z,8.57
2023-04-23T09:27:02.832Z,9.60
2023-04-23T09:29:31.190Z,8.88
2023-04-23T09:32:10.300Z,8.32
2023-04-23T09:34:37.792Z,7.50
2023-04-23T09:37:06.260Z,7.28
2023-04-23T09:39:34.555Z,7.70
2023-04-23T09:42:05.466Z,6.90
2023-04-23T09:44:33.465Z,6.80
2023-04-23T09:47:09.775Z,7.07
2023-04-23T09:49:49.774Z,7.40
2023-04-23T09:52:17.188Z,6.75
2023-04-23T09:54:46.549Z,6.50
2023-04-23T09:57:13.465Z,6.00
2023-04-23T10:02:12.657Z,6.32
2023-04-23T10:04:40.208Z,6.43
2023-04-23T10:07:19.018Z,5.90
2023-04-23T10:09:47.617Z,5.97
2023-04-23T10:17:13.369Z,5.88
2023-04-23T10:19:43.419Z,6.55
2023-04-23T10:22:19.368Z,6.72
2023-04-23T10:24:51.544Z,7.07
2023-04-23T10:29:49.620Z,5.40
2023-04-23T10:32:17.709Z,6.45
2023-04-23T10:34:45.506Z,5.57
2023-04-23T10:37:13.497Z,5.55
2023-04-23T10:39:44.159Z,5.43
2023-04-23T10:42:13.493Z,4.15
2023-04-23T10:47:16.788Z,3.63
2023-04-23T10:49:44.372Z,3.10
2023-04-23T10:52:20.112Z,3.83
2023-04-23T10:54:56.684Z,3.00
2023-04-23T10:57:23.416Z,3.10
2023-04-23T10:59:54.968Z,3.63
2023-04-23T11:02:24.618Z,3.65
2023-04-23T11:04:59.079Z,2.67
2023-04-23T11:07:30.816Z,2.53
2023-04-23T11:10:00.249Z,1.90
2023-04-23T11:12:32.821Z,1.60
2023-04-23T11:15:00.176Z,1.80
2023-04-23T11:17:33.086Z,3.78
2023-04-23T11:20:13.410Z,2.53
2023-04-23T11:22:44.575Z,3.38
2023-04-23T11:25:13.287Z,2.30
2023-04-23T11:27:41.951Z,1.70
2023-04-23T11:30:13.996Z,1.70
2023-04-23T11:32:42.347Z,1.80
2023-04-23T11:35:11.415Z,1.90
2023-04-23T11:40:10.361Z,2.30
2023-04-23T11:42:47.844Z,1.90
2023-04-23T11:45:22.603Z,2.20
2023-04-23T11:47:55.943Z,2.28
2023-04-23T11:50:42.031Z,1.88
2023-04-23T11:53:10.448Z,1.50
2023-04-23T11:55:38.178Z,2.03
2023-04-23T11:58:04.860Z,1.60
2023-04-23T12:00:31.512Z,1.30
2023-04-23T12:03:02.820Z,2.05
2023-04-23T12:05:35.365Z,1.80
2023-04-23T12:08:14.560Z,1.92
2023-04-23T12:10:49.753Z,2.22
2023-04-23T12:13:26.293Z,2.42
2023-04-23T12:15:59.129Z,2.40
2023-04-23T12:18:33.694Z,2.63
2023-04-23T12:21:06.828Z,2.90
2023-04-23T12:23:35.994Z,2.70
2023-04-23T12:26:06.937Z,3.10
2023-04-23T12:28:33.557Z,3.20
2023-04-23T12:31:02.198Z,3.58
2023-04-23T12:33:30.563Z,3.70
2023-04-23T12:35:57.858Z,3.28
2023-04-23T12:38:29.490Z,3.40
2023-04-23T12:41:00.376Z,3.78
2023-04-23T12:43:27.205Z,3.20
2023-04-23T12:45:56.810Z,4.20
2023-04-23T12:48:23.499Z,4.00
2023-04-23T12:50:50.276Z,3.70
2023-04-23T12:53:18.438Z,3.50
2023-04-23T12:55:46.017Z,3.03
2023-04-23T12:58:12.800Z,2.90
2023-04-23T13:00:39.553Z,2.08
2023-04-23T13:03:06.475Z,2.30
2023-04-23T13:05:33.407Z,2.45
2023-04-23T13:08:00.035Z,2.20
2023-04-23T13:10:26.782Z,2.50
2023-04-23T13:12:53.406Z,2.60
2023-04-23T13:15:20.391Z,2.80
2023-04-23T13:17:47.309Z,2.85
2023-04-23T13:20:13.909Z,2.60
2023-04-23T13:22:40.551Z,2.45
2023-04-23T13:25:10.236Z,2.47
2023-04-23T13:27:38.643Z,7.68
2023-04-23T13:30:06.119Z,3.03
2023-04-23T13:32:33.267Z,3.10
2023-04-23T13:35:05.020Z,4.15
2023-04-23T13:37:32.128Z,2.38
2023-04-23T13:39:58.809Z,1.80
2023-04-23T13:42:25.609Z,1.35
2023-04-23T13:44:52.538Z,1.10
2023-04-23T13:47:19.261Z,1.38
2023-04-23T13:49:46.033Z,0.98
2023-04-23T13:52:12.630Z,1.30
2023-04-23T13:54:39.819Z,1.40
2023-04-23T13:57:06.919Z,1.70
2023-04-23T13:59:33.534Z,1.70
2023-04-23T14:02:00.557Z,1.60
2023-04-23T14:04:27.263Z,1.40
2023-04-23T14:06:53.954Z,1.60
2023-04-23T14:09:22.200Z,1.60
2023-04-23T14:11:49.032Z,1.80
2023-04-23T14:14:16.844Z,1.58
2023-04-23T14:16:43.898Z,1.50
2023-04-23T14:19:10.619Z,1.50
2023-04-23T14:21:37.481Z,1.80
2023-04-23T14:24:10.409Z,1.85
2023-04-23T14:29:28.869Z,1.80
2023-04-23T14:31:55.876Z,1.80
2023-04-23T14:34:22.702Z,1.40
2023-04-23T14:36:49.616Z,2.03
2023-04-23T14:39:17.048Z,1.80
2023-04-23T14:41:43.825Z,1.65
2023-04-23T14:44:11.186Z,1.92
2023-04-23T14:46:38.043Z,1.63
2023-04-23T14:49:04.872Z,1.83
2023-04-23T14:51:31.540Z,2.08
2023-04-23T14:53:58.163Z,2.33
2023-04-23T14:56:24.925Z,2.13
2023-04-23T14:58:51.614Z,1.92
2023-04-23T15:01:18.374Z,1.90
2023-04-23T15:03:45.885Z,2.63
2023-04-23T15:06:13.269Z,2.15
2023-04-23T15:08:39.955Z,1.77
2023-04-23T15:11:13.096Z,2.03
2023-04-23T15:13:49.812Z,2.28
2023-04-23T15:16:46.959Z,2.45
2023-04-23T15:19:14.803Z,2.13
2023-04-23T15:21:42.993Z,1.98
2023-04-23T15:24:09.901Z,1.95
2023-04-23T15:26:37.567Z,2.28
2023-04-23T15:29:06.106Z,2.70
2023-04-23T15:31:36.277Z,2.35
2023-04-23T15:36:29.601Z,2.50
2023-04-23T15:38:56.288Z,2.13
2023-04-23T15:41:22.972Z,2.15
2023-04-23T15:43:50.450Z,2.30
2023-04-23T15:46:17.314Z,2.05
2023-04-23T15:48:44.286Z,2.08
2023-04-23T15:51:11.086Z,2.28
2023-04-23T15:53:37.852Z,2.13
2023-04-23T15:56:04.511Z,1.73
2023-04-23T15:58:31.162Z,1.92
2023-04-23T16:00:57.900Z,2.03
2023-04-23T16:03:24.749Z,2.20
2023-04-23T16:05:52.826Z,4.28
2023-04-23T16:08:19.559Z,2.08
2023-04-23T16:10:46.534Z,1.95
2023-04-23T16:13:13.208Z,2.20
2023-04-23T16:15:40.087Z,2.20
2023-04-23T16:18:06.915Z,2.28
2023-04-23T16:20:33.723Z,2.08
2023-04-23T16:23:01.430Z,1.90
2023-04-23T16:25:28.294Z,2.20
2023-04-23T16:27:55.970Z,2.10
2023-04-23T16:30:23.130Z,2.00
2023-04-23T16:32:49.899Z,2.03
2023-04-23T16:35:16.949Z,2.22
2023-04-23T16:37:43.596Z,1.90
2023-04-23T16:40:10.494Z,3.10
2023-04-23T16:42:37.338Z,2.00
2023-04-23T16:45:05.005Z,2.60
2023-04-23T16:47:31.646Z,2.42
2023-04-23T16:49:58.559Z,3.08
2023-04-23T16:52:25.352Z,3.22
2023-04-23T16:54:52.062Z,3.03
2023-04-23T16:57:18.849Z,2.80
2023-04-23T16:59:45.553Z,2.50
2023-04-23T17:02:12.589Z,2.50
2023-04-23T17:04:39.756Z,2.80
2023-04-23T17:07:07.456Z,3.05
2023-04-23T17:09:34.593Z,3.58
2023-04-23T17:12:02.517Z,3.13
2023-04-23T17:14:29.266Z,2.80
2023-04-23T17:16:56.393Z,3.38
2023-04-23T17:19:23.150Z,3.20
2023-04-23T17:21:49.957Z,3.10
2023-04-23T17:24:16.668Z,2.97
2023-04-23T17:26:43.786Z,2.65
2023-04-23T17:29:10.839Z,2.92
2023-04-23T17:31:38.474Z,3.53
2023-04-23T17:34:05.665Z,3.72
2023-04-23T17:36:33.044Z,3.25
2023-04-23T17:38:59.790Z,3.50
2023-04-23T17:41:26.718Z,3.38
2023-04-23T17:43:53.524Z,3.15
2023-04-23T17:46:20.302Z,3.40
2023-04-23T17:48:48.208Z,2.80
2023-04-23T17:51:14.897Z,3.40
2023-04-23T17:53:42.327Z,2.80
2023-04-23T17:56:09.104Z,3.13
2023-04-23T17:58:36.198Z,2.78
2023-04-23T18:01:04.879Z,3.38
2023-04-23T18:03:32.355Z,3.80
2023-04-23T18:05:59.398Z,3.75
2023-04-23T18:08:26.040Z,3.67
2023-04-23T18:10:52.739Z,3.72
2023-04-23T18:13:19.428Z,3.53
2023-04-23T18:15:50.028Z,4.65
2023-04-23T18:18:17.747Z,4.45
2023-04-23T18:20:46.150Z,4.45
2023-04-23T18:23:14.254Z,4.85
2023-04-23T18:25:41.801Z,5.20
2023-04-23T18:28:08.469Z,4.82
2023-04-23T18:30:38.181Z,4.65
2023-04-23T18:33:30.551Z,4.28
2023-04-23T18:36:00.111Z,4.85
2023-04-23T18:38:42.959Z,4.35
2023-04-23T18:41:09.579Z,4.63
2023-04-23T18:43:36.308Z,5.65
2023-04-23T18:46:03.817Z,6.25
2023-04-23T18:48:33.532Z,5.28
2023-04-23T18:51:26.525Z,5.70
2023-04-23T18:53:53.557Z,6.20
2023-04-23T18:56:20.239Z,5.63
2023-04-23T18:58:46.969Z,5.70
2023-04-23T19:01:13.797Z,5.63
2023-04-23T19:03:40.606Z,5.38
2023-04-23T19:06:08.041Z,6.28
2023-04-23T19:08:35.636Z,6.28
2023-04-23T19:11:03.122Z,6.32
2023-04-23T19:13:29.974Z,6.38
2023-04-23T19:15:56.968Z,5.90
2023-04-23T19:18:24.172Z,7.05
2023-04-23T19:20:51.700Z,6.50
2023-04-23T19:23:19.098Z,6.57
2023-04-23T19:25:45.913Z,6.43
2023-04-23T19:28:12.619Z,6.63
2023-04-23T19:30:39.412Z,7.20
2023-04-23T19:33:06.351Z,8.00
2023-04-23T19:35:33.219Z,7.47
2023-04-23T19:37:59.985Z,6.85
2023-04-23T19:40:26.854Z,7.22
2023-04-23T19:42:53.561Z,6.70
2023-04-23T19:45:20.284Z,7.68
2023-04-23T19:47:47.113Z,6.55
2023-04-23T19:50:14.222Z,7.50
2023-04-23T19:52:41.262Z,6.25
2023-04-23T19:55:08.488Z,6.43
2023-04-23T19:57:35.123Z,6.60
2023-04-23T20:00:02.015Z,6.55
2023-04-23T20:02:28.690Z,6.05
2023-04-23T20:04:55.623Z,6.32
2023-04-23T20:07:22.307Z,5.65
2023-04-23T20:09:49.083Z,4.65
2023-04-23T20:12:16.385Z,4.90
2023-04-23T20:14:43.102Z,5.10
2023-04-23T20:17:10.262Z,5.10
2023-04-23T20:19:38.356Z,5.55
2023-04-23T20:22:05.211Z,6.03
2023-04-23T20:24:31.889Z,4.93
2023-04-23T20:26:58.660Z,4.93
2023-04-23T20:29:25.436Z,5.05
2023-04-23T20:31:52.204Z,5.03
2023-04-23T20:34:18.891Z,4.70
2023-04-23T20:36:48.734Z,4.68
2023-04-23T20:39:15.440Z,4.93
2023-04-23T20:41:42.374Z,4.95
2023-04-23T20:44:09.765Z,5.00
2023-04-23T20:46:36.831Z,5.00
2023-04-23T20:49:04.120Z,5.00
2023-04-23T20:51:35.028Z,4.18
2023-04-23T20:54:02.460Z,4.35
2023-04-23T20:56:30.073Z,4.93
2023-04-23T20:59:00.171Z,5.00
2023-04-23T21:01:27.317Z,4.10
2023-04-23T21:03:54.738Z,4.88
2023-04-23T21:06:22.454Z,4.20
2023-04-23T21:08:49.143Z,4.50
2023-04-23T21:11:18.183Z,4.60
2023-04-23T21:13:46.284Z,4.30
2023-04-23T21:16:13.305Z,4.53
2023-04-23T21:18:42.063Z,4.65
2023-04-23T21:21:08.707Z,5.15
2023-04-23T21:23:35.889Z,4.82
2023-04-23T21:26:03.290Z,4.50
2023-04-23T21:28:30.139Z,4.35
2023-04-23T21:31:01.103Z,4.60
2023-04-23T21:33:27.869Z,4.80
2023-04-23T21:35:54.532Z,5.10
2023-04-23T21:38:21.469Z,4.78
2023-04-23T21:40:48.619Z,4.75
2023-04-23T21:43:16.259Z,3.80
2023-04-23T21:45:42.888Z,4.93
2023-04-23T21:48:09.962Z,5.03
2023-04-23T21:50:37.385Z,4.97
2023-04-23T21:53:06.964Z,5.40
2023-04-23T21:55:33.992Z,5.57
2023-04-23T21:58:13.875Z,5.18
2023-04-23T22:00:44.763Z,4.57
2023-04-23T22:03:12.891Z,4.93
2023-04-23T22:05:44.532Z,4.88
2023-04-23T22:08:11.272Z,5.15
2023-04-23T22:10:43.019Z,4.78
2023-04-23T22:13:11.162Z,5.25
2023-04-23T22:15:38.342Z,5.40
2023-04-23T22:18:05.557Z,4.70
2023-04-23T22:20:32.573Z,6.40
2023-04-23T22:22:59.511Z,5.65
2023-04-23T22:25:26.305Z,5.70
2023-04-23T22:27:52.918Z,6.13
2023-04-23T22:30:19.734Z,5.35
2023-04-23T22:32:47.046Z,6.13
2023-04-23T22:35:13.896Z,5.45
2023-04-23T22:37:40.601Z,6.65
2023-04-23T22:40:08.183Z,6.15
2023-04-23T22:42:34.964Z,5.90
2023-04-23T22:45:01.793Z,6.05
2023-04-23T22:47:28.512Z,6.20
2023-04-23T22:49:55.273Z,5.65
2023-04-23T22:52:21.991Z,6.00
2023-04-23T22:54:48.755Z,5.28
2023-04-23T22:57:15.459Z,5.10
2023-04-23T22:59:42.580Z,5.40
2023-04-23T23:02:09.538Z,6.13
2023-04-23T23:04:38.481Z,5.97
2023-04-23T23:07:06.283Z,7.32
2023-04-23T23:09:32.942Z,6.32
2023-04-23T23:12:02.491Z,6.25
2023-04-23T23:14:29.502Z,6.93
2023-04-23T23:16:57.144Z,6.63
2023-04-23T23:19:26.429Z,6.60
2023-04-23T23:21:53.268Z,6.87
2023-04-23T23:24:19.949Z,6.00
2023-04-23T23:26:46.778Z,6.60
2023-04-23T23:29:13.571Z,7.75
2023-04-23T23:31:40.424Z,7.82
2023-04-23T23:34:07.139Z,7.00
2023-04-23T23:36:34.109Z,8.23
2023-04-23T23:39:01.234Z,9.77
2023-04-23T23:41:28.070Z,6.32
2023-04-23T23:43:54.779Z,7.35
2023-04-23T23:46:21.896Z,7.38
2023-04-23T23:48:48.646Z,6.72
2023-04-23T23:51:16.147Z,6.45
2023-04-23T23:53:42.869Z,6.10
2023-04-23T23:56:09.614Z,6.63
2023-04-23T23:58:36.537Z,6.13
